sensor_id;sensor_type;location;lat;lon;timestamp;temperature;humidity
7014;DHT22;3547;50.774;12.918;2023-09-07T00:01:48;13.80;1.00
7014;DHT22;3547;50.774;12.918;2023-09-07T00:35:25;13.20;1.00
7014;DHT22;3547;50.774;12.918;2023-09-07T00:37:52;13.10;1.00
7014;DHT22;3547;50.774;12.918;2023-09-07T00:40:20;13.10;1.00
7014;DHT22;3547;50.774;12.918;2023-09-07T01:30:29;12.80;1.00
7014;DHT22;3547;50.774;12.918;2023-09-07T01:32:55;12.70;1.00
7014;DHT22;3547;50.774;12.918;2023-09-07T01:35:22;12.70;1.00
7014;DHT22;3547;50.774;12.918;2023-09-07T01:37:50;12.80;1.00
7014;DHT22;3547;50.774;12.918;2023-09-07T01:40:16;12.80;1.00
7014;DHT22;3547;50.774;12.918;2023-09-07T03:13:09;11.80;1.00
7014;DHT22;3547;50.774;12.918;2023-09-07T03:15:35;11.80;1.00
7014;DHT22;3547;50.774;12.918;2023-09-07T03:33:44;11.90;1.00
7014;DHT22;3547;50.774;12.918;2023-09-07T03:36:21;11.90;1.00
7014;DHT22;3547;50.774;12.918;2023-09-07T03:38:59;12.00;1.00
7014;DHT22;3547;50.774;12.918;2023-09-07T03:41:25;12.00;1.00
7014;DHT22;3547;50.774;12.918;2023-09-07T03:43:56;12.10;1.00
7014;DHT22;3547;50.774;12.918;2023-09-07T03:46:29;12.20;1.00
7014;DHT22;3547;50.774;12.918;2023-09-07T03:48:55;12.20;1.00
7014;DHT22;3547;50.774;12.918;2023-09-07T03:51:21;12.20;1.00
7014;DHT22;3547;50.774;12.918;2023-09-07T03:53:47;12.10;1.00
7014;DHT22;3547;50.774;12.918;2023-09-07T03:56:13;12.20;1.00
7014;DHT22;3547;50.774;12.918;2023-09-07T03:58:39;12.10;1.00
7014;DHT22;3547;50.774;12.918;2023-09-07T04:01:06;12.20;1.00
7014;DHT22;3547;50.774;12.918;2023-09-07T04:03:32;12.10;1.00
7014;DHT22;3547;50.774;12.918;2023-09-07T04:05:59;12.10;1.00
7014;DHT22;3547;50.774;12.918;2023-09-07T04:08:25;12.10;1.00
7014;DHT22;3547;50.774;12.918;2023-09-07T04:10:51;12.00;1.00
7014;DHT22;3547;50.774;12.918;2023-09-07T04:13:17;11.90;1.00
7014;DHT22;3547;50.774;12.918;2023-09-07T04:15:44;11.90;1.00
7014;DHT22;3547;50.774;12.918;2023-09-07T04:18:12;11.80;1.00
7014;DHT22;3547;50.774;12.918;2023-09-07T04:20:39;11.80;1.00
7014;DHT22;3547;50.774;12.918;2023-09-07T04:23:05;11.80;1.00
7014;DHT22;3547;50.774;12.918;2023-09-07T04:25:31;11.90;1.00
7014;DHT22;3547;50.774;12.918;2023-09-07T04:28:00;11.80;1.00
7014;DHT22;3547;50.774;12.918;2023-09-07T04:30:26;11.90;1.00
7014;DHT22;3547;50.774;12.918;2023-09-07T04:32:53;11.90;1.00
7014;DHT22;3547;50.774;12.918;2023-09-07T04:35:19;11.90;1.00
7014;DHT22;3547;50.774;12.918;2023-09-07T04:37:45;11.90;1.00
7014;DHT22;3547;50.774;12.918;2023-09-07T04:40:11;11.90;1.00
7014;DHT22;3547;50.774;12.918;2023-09-07T04:42:38;11.80;1.00
7014;DHT22;3547;50.774;12.918;2023-09-07T04:45:05;11.70;1.00
7014;DHT22;3547;50.774;12.918;2023-09-07T04:47:31;11.70;1.00
7014;DHT22;3547;50.774;12.918;2023-09-07T04:49:58;11.80;1.00
7014;DHT22;3547;50.774;12.918;2023-09-07T04:52:25;11.80;1.00
7014;DHT22;3547;50.774;12.918;2023-09-07T04:54:51;11.80;1.00
7014;DHT22;3547;50.774;12.918;2023-09-07T04:57:17;11.90;1.00
7014;DHT22;3547;50.774;12.918;2023-09-07T04:59:44;12.00;1.00
7014;DHT22;3547;50.774;12.918;2023-09-07T05:02:10;12.00;1.00
7014;DHT22;3547;50.774;12.918;2023-09-07T05:04:38;12.10;1.00
7014;DHT22;3547;50.774;12.918;2023-09-07T05:07:04;12.10;1.00
7014;DHT22;3547;50.774;12.918;2023-09-07T05:09:30;12.10;1.00
7014;DHT22;3547;50.774;12.918;2023-09-07T05:11:57;12.20;1.00
7014;DHT22;3547;50.774;12.918;2023-09-07T05:14:24;12.30;1.00
7014;DHT22;3547;50.774;12.918;2023-09-07T05:16:51;12.30;1.00
7014;DHT22;3547;50.774;12.918;2023-09-07T05:19:17;12.30;1.00
7014;DHT22;3547;50.774;12.918;2023-09-07T05:21:46;12.40;1.00
7014;DHT22;3547;50.774;12.918;2023-09-07T05:24:16;12.40;1.00
7014;DHT22;3547;50.774;12.918;2023-09-07T05:26:43;12.50;1.00
7014;DHT22;3547;50.774;12.918;2023-09-07T05:29:12;12.50;1.00
7014;DHT22;3547;50.774;12.918;2023-09-07T05:31:39;12.40;1.00
7014;DHT22;3547;50.774;12.918;2023-09-07T05:34:05;12.40;1.00
7014;DHT22;3547;50.774;12.918;2023-09-07T05:36:31;12.50;1.00
7014;DHT22;3547;50.774;12.918;2023-09-07T05:39:01;12.50;1.00
7014;DHT22;3547;50.774;12.918;2023-09-07T05:41:28;12.60;1.00
7014;DHT22;3547;50.774;12.918;2023-09-07T05:43:55;12.60;1.00
7014;DHT22;3547;50.774;12.918;2023-09-07T05:46:21;12.60;1.00
7014;DHT22;3547;50.774;12.918;2023-09-07T05:48:47;12.60;1.00
7014;DHT22;3547;50.774;12.918;2023-09-07T05:51:13;12.70;1.00
7014;DHT22;3547;50.774;12.918;2023-09-07T05:53:40;12.80;1.00
7014;DHT22;3547;50.774;12.918;2023-09-07T05:56:06;12.80;1.00
7014;DHT22;3547;50.774;12.918;2023-09-07T05:58:32;12.80;1.00
7014;DHT22;3547;50.774;12.918;2023-09-07T06:00:59;12.90;1.00
7014;DHT22;3547;50.774;12.918;2023-09-07T06:03:29;12.90;1.00
7014;DHT22;3547;50.774;12.918;2023-09-07T06:05:55;12.90;1.00
7014;DHT22;3547;50.774;12.918;2023-09-07T06:08:21;13.00;1.00
7014;DHT22;3547;50.774;12.918;2023-09-07T06:10:48;13.10;1.00
7014;DHT22;3547;50.774;12.918;2023-09-07T06:13:15;13.20;1.00
7014;DHT22;3547;50.774;12.918;2023-09-07T06:15:41;13.20;1.00
7014;DHT22;3547;50.774;12.918;2023-09-07T06:18:08;13.30;1.00
7014;DHT22;3547;50.774;12.918;2023-09-07T06:20:40;13.40;1.00
7014;DHT22;3547;50.774;12.918;2023-09-07T06:23:09;13.50;1.00
7014;DHT22;3547;50.774;12.918;2023-09-07T06:25:38;13.50;1.00
7014;DHT22;3547;50.774;12.918;2023-09-07T06:28:05;13.70;1.00
7014;DHT22;3547;50.774;12.918;2023-09-07T06:30:31;13.80;1.00
7014;DHT22;3547;50.774;12.918;2023-09-07T06:33:01;13.90;1.00
7014;DHT22;3547;50.774;12.918;2023-09-07T06:35:27;14.00;1.00
7014;DHT22;3547;50.774;12.918;2023-09-07T06:37:54;14.10;1.00
7014;DHT22;3547;50.774;12.918;2023-09-07T06:40:22;14.20;1.00
7014;DHT22;3547;50.774;12.918;2023-09-07T06:42:51;14.30;1.00
7014;DHT22;3547;50.774;12.918;2023-09-07T06:45:20;14.50;1.00
7014;DHT22;3547;50.774;12.918;2023-09-07T06:47:55;14.50;1.00
7014;DHT22;3547;50.774;12.918;2023-09-07T06:50:24;14.70;1.00
7014;DHT22;3547;50.774;12.918;2023-09-07T06:52:50;14.80;1.00
7014;DHT22;3547;50.774;12.918;2023-09-07T06:55:17;14.90;1.00
7014;DHT22;3547;50.774;12.918;2023-09-07T06:57:47;15.10;1.00
7014;DHT22;3547;50.774;12.918;2023-09-07T07:00:34;15.20;1.00
7014;DHT22;3547;50.774;12.918;2023-09-07T07:03:03;15.30;1.00
7014;DHT22;3547;50.774;12.918;2023-09-07T07:05:31;15.40;1.00
7014;DHT22;3547;50.774;12.918;2023-09-07T07:08:05;15.50;1.00
7014;DHT22;3547;50.774;12.918;2023-09-07T07:10:42;15.70;1.00
7014;DHT22;3547;50.774;12.918;2023-09-07T07:13:09;15.80;1.00
7014;DHT22;3547;50.774;12.918;2023-09-07T07:15:36;15.90;1.00
7014;DHT22;3547;50.774;12.918;2023-09-07T07:18:02;16.00;1.00
7014;DHT22;3547;50.774;12.918;2023-09-07T07:20:44;16.10;1.00
7014;DHT22;3547;50.774;12.918;2023-09-07T07:23:11;16.30;1.00
7014;DHT22;3547;50.774;12.918;2023-09-07T07:25:38;16.40;1.00
7014;DHT22;3547;50.774;12.918;2023-09-07T07:28:06;16.50;1.00
7014;DHT22;3547;50.774;12.918;2023-09-07T07:33:10;16.80;1.00
7014;DHT22;3547;50.774;12.918;2023-09-07T07:35:40;16.90;1.00
7014;DHT22;3547;50.774;12.918;2023-09-07T07:38:09;17.00;1.00
7014;DHT22;3547;50.774;12.918;2023-09-07T07:40:40;17.10;1.00
7014;DHT22;3547;50.774;12.918;2023-09-07T07:43:09;17.20;1.00
7014;DHT22;3547;50.774;12.918;2023-09-07T07:45:45;17.30;1.00
7014;DHT22;3547;50.774;12.918;2023-09-07T07:51:43;17.50;1.00
7014;DHT22;3547;50.774;12.918;2023-09-07T07:54:11;17.60;1.00
7014;DHT22;3547;50.774;12.918;2023-09-07T07:56:40;17.80;1.00
7014;DHT22;3547;50.774;12.918;2023-09-07T08:09:30;18.30;1.00
7014;DHT22;3547;50.774;12.918;2023-09-07T08:11:58;18.40;1.00
7014;DHT22;3547;50.774;12.918;2023-09-07T08:14:30;18.50;1.00
7014;DHT22;3547;50.774;12.918;2023-09-07T08:16:58;18.70;1.00
7014;DHT22;3547;50.774;12.918;2023-09-07T08:19:25;18.80;1.00
7014;DHT22;3547;50.774;12.918;2023-09-07T08:21:53;19.00;1.00
7014;DHT22;3547;50.774;12.918;2023-09-07T08:24:20;19.10;1.00
7014;DHT22;3547;50.774;12.918;2023-09-07T08:26:48;19.20;1.00
7014;DHT22;3547;50.774;12.918;2023-09-07T08:29:17;19.40;1.00
7014;DHT22;3547;50.774;12.918;2023-09-07T08:31:46;19.50;1.00
7014;DHT22;3547;50.774;12.918;2023-09-07T08:34:14;19.60;1.00
7014;DHT22;3547;50.774;12.918;2023-09-07T08:39:20;19.90;1.00
7014;DHT22;3547;50.774;12.918;2023-09-07T08:41:53;20.10;1.00
7014;DHT22;3547;50.774;12.918;2023-09-07T08:47:47;20.50;1.00
7014;DHT22;3547;50.774;12.918;2023-09-07T08:50:15;20.70;1.00
7014;DHT22;3547;50.774;12.918;2023-09-07T08:52:49;20.80;1.00
7014;DHT22;3547;50.774;12.918;2023-09-07T10:21:29;24.50;1.00
7014;DHT22;3547;50.774;12.918;2023-09-07T10:31:25;24.70;1.00
7014;DHT22;3547;50.774;12.918;2023-09-07T10:33:51;24.70;1.00
7014;DHT22;3547;50.774;12.918;2023-09-07T10:36:28;24.80;1.00
7014;DHT22;3547;50.774;12.918;2023-09-07T10:38:55;24.80;1.00
7014;DHT22;3547;50.774;12.918;2023-09-07T10:41:24;24.90;1.00
7014;DHT22;3547;50.774;12.918;2023-09-07T10:43:54;25.00;1.00
7014;DHT22;3547;50.774;12.918;2023-09-07T10:46:25;25.00;1.00
7014;DHT22;3547;50.774;12.918;2023-09-07T10:48:53;25.10;1.00
7014;DHT22;3547;50.774;12.918;2023-09-07T10:51:22;25.20;1.00
7014;DHT22;3547;50.774;12.918;2023-09-07T10:53:49;25.20;1.00
7014;DHT22;3547;50.774;12.918;2023-09-07T10:56:27;25.20;1.00
7014;DHT22;3547;50.774;12.918;2023-09-07T10:58:54;25.30;1.00
7014;DHT22;3547;50.774;12.918;2023-09-07T11:01:21;25.40;1.00
7014;DHT22;3547;50.774;12.918;2023-09-07T11:03:47;25.50;1.00
7014;DHT22;3547;50.774;12.918;2023-09-07T11:06:18;25.50;1.00
7014;DHT22;3547;50.774;12.918;2023-09-07T11:08:48;25.50;1.00
7014;DHT22;3547;50.774;12.918;2023-09-07T11:11:17;25.60;1.00
7014;DHT22;3547;50.774;12.918;2023-09-07T11:13:48;25.70;1.00
7014;DHT22;3547;50.774;12.918;2023-09-07T11:19:38;25.80;1.00
7014;DHT22;3547;50.774;12.918;2023-09-07T11:22:10;26.00;1.00
7014;DHT22;3547;50.774;12.918;2023-09-07T11:24:42;26.00;1.00
7014;DHT22;3547;50.774;12.918;2023-09-07T11:27:09;26.10;1.00
7014;DHT22;3547;50.774;12.918;2023-09-07T11:29:36;26.30;1.00
7014;DHT22;3547;50.774;12.918;2023-09-07T11:32:09;26.40;1.00
7014;DHT22;3547;50.774;12.918;2023-09-07T11:34:52;26.50;1.00
7014;DHT22;3547;50.774;12.918;2023-09-07T11:37:24;26.70;1.00
7014;DHT22;3547;50.774;12.918;2023-09-07T11:39:51;26.80;1.00
7014;DHT22;3547;50.774;12.918;2023-09-07T11:42:18;26.90;1.00
7014;DHT22;3547;50.774;12.918;2023-09-07T11:44:44;27.00;1.00
7014;DHT22;3547;50.774;12.918;2023-09-07T11:47:10;27.20;1.00
7014;DHT22;3547;50.774;12.918;2023-09-07T11:49:42;27.30;1.00
7014;DHT22;3547;50.774;12.918;2023-09-07T11:52:10;27.40;1.00
7014;DHT22;3547;50.774;12.918;2023-09-07T11:57:58;27.70;1.00
7014;DHT22;3547;50.774;12.918;2023-09-07T12:00:24;27.80;1.00
7014;DHT22;3547;50.774;12.918;2023-09-07T12:02:51;27.90;1.00
7014;DHT22;3547;50.774;12.918;2023-09-07T12:05:17;28.00;1.00
7014;DHT22;3547;50.774;12.918;2023-09-07T12:07:45;28.00;1.00
7014;DHT22;3547;50.774;12.918;2023-09-07T12:10:12;28.00;1.00
7014;DHT22;3547;50.774;12.918;2023-09-07T12:12:40;28.00;1.00
7014;DHT22;3547;50.774;12.918;2023-09-07T12:15:07;28.00;1.00
7014;DHT22;3547;50.774;12.918;2023-09-07T12:17:37;27.90;1.00
7014;DHT22;3547;50.774;12.918;2023-09-07T12:20:04;28.00;1.00
7014;DHT22;3547;50.774;12.918;2023-09-07T12:22:39;28.00;1.00
7014;DHT22;3547;50.774;12.918;2023-09-07T12:25:15;28.00;1.00
7014;DHT22;3547;50.774;12.918;2023-09-07T12:27:44;27.90;1.00
7014;DHT22;3547;50.774;12.918;2023-09-07T12:30:15;27.90;1.00
7014;DHT22;3547;50.774;12.918;2023-09-07T12:32:46;27.90;1.00
7014;DHT22;3547;50.774;12.918;2023-09-07T12:35:17;27.90;1.00
7014;DHT22;3547;50.774;12.918;2023-09-07T12:37:47;27.90;1.00
7014;DHT22;3547;50.774;12.918;2023-09-07T12:40:13;27.90;1.00
7014;DHT22;3547;50.774;12.918;2023-09-07T12:42:41;27.90;1.00
7014;DHT22;3547;50.774;12.918;2023-09-07T12:45:10;27.90;1.00
7014;DHT22;3547;50.774;12.918;2023-09-07T12:47:39;27.90;1.00
7014;DHT22;3547;50.774;12.918;2023-09-07T12:50:12;27.90;1.00
7014;DHT22;3547;50.774;12.918;2023-09-07T12:52:40;27.90;1.00
7014;DHT22;3547;50.774;12.918;2023-09-07T12:55:07;27.90;1.00
7014;DHT22;3547;50.774;12.918;2023-09-07T12:57:37;27.90;1.00
7014;DHT22;3547;50.774;12.918;2023-09-07T13:00:07;27.90;1.00
7014;DHT22;3547;50.774;12.918;2023-09-07T13:02:33;27.90;1.00
7014;DHT22;3547;50.774;12.918;2023-09-07T13:05:00;27.90;1.00
7014;DHT22;3547;50.774;12.918;2023-09-07T13:07:36;27.90;1.00
7014;DHT22;3547;50.774;12.918;2023-09-07T13:10:07;28.00;1.00
7014;DHT22;3547;50.774;12.918;2023-09-07T13:12:34;28.00;1.00
7014;DHT22;3547;50.774;12.918;2023-09-07T13:15:00;28.00;1.00
7014;DHT22;3547;50.774;12.918;2023-09-07T13:17:26;28.10;1.00
7014;DHT22;3547;50.774;12.918;2023-09-07T13:19:55;28.10;1.00
7014;DHT22;3547;50.774;12.918;2023-09-07T13:22:22;28.20;1.00
7014;DHT22;3547;50.774;12.918;2023-09-07T13:24:49;28.30;1.00
7014;DHT22;3547;50.774;12.918;2023-09-07T13:27:16;28.30;1.00
7014;DHT22;3547;50.774;12.918;2023-09-07T13:29:42;28.40;1.00
7014;DHT22;3547;50.774;12.918;2023-09-07T13:32:08;28.60;1.00
7014;DHT22;3547;50.774;12.918;2023-09-07T13:34:35;28.70;1.00
7014;DHT22;3547;50.774;12.918;2023-09-07T13:37:01;28.70;1.00
7014;DHT22;3547;50.774;12.918;2023-09-07T13:39:28;28.80;1.00
7014;DHT22;3547;50.774;12.918;2023-09-07T13:41:54;28.80;1.00
7014;DHT22;3547;50.774;12.918;2023-09-07T13:44:23;28.90;1.00
7014;DHT22;3547;50.774;12.918;2023-09-07T13:46:49;28.90;1.00
7014;DHT22;3547;50.774;12.918;2023-09-07T13:49:15;29.00;1.00
7014;DHT22;3547;50.774;12.918;2023-09-07T13:51:41;29.10;1.00
7014;DHT22;3547;50.774;12.918;2023-09-07T13:54:08;29.30;1.00
7014;DHT22;3547;50.774;12.918;2023-09-07T13:56:37;29.60;1.00
7014;DHT22;3547;50.774;12.918;2023-09-07T13:59:08;29.80;1.00
7014;DHT22;3547;50.774;12.918;2023-09-07T14:01:34;30.00;1.00
7014;DHT22;3547;50.774;12.918;2023-09-07T14:04:01;30.20;1.00
7014;DHT22;3547;50.774;12.918;2023-09-07T14:06:27;30.30;1.00
7014;DHT22;3547;50.774;12.918;2023-09-07T14:08:53;30.40;1.00
7014;DHT22;3547;50.774;12.918;2023-09-07T14:11:19;30.50;1.00
7014;DHT22;3547;50.774;12.918;2023-09-07T14:13:47;30.40;1.00
7014;DHT22;3547;50.774;12.918;2023-09-07T14:16:13;30.50;1.00
7014;DHT22;3547;50.774;12.918;2023-09-07T14:18:39;30.60;1.00
7014;DHT22;3547;50.774;12.918;2023-09-07T14:21:06;30.60;1.00
7014;DHT22;3547;50.774;12.918;2023-09-07T14:23:32;30.70;1.00
7014;DHT22;3547;50.774;12.918;2023-09-07T14:25:58;30.90;1.00
7014;DHT22;3547;50.774;12.918;2023-09-07T14:28:24;31.40;1.00
7014;DHT22;3547;50.774;12.918;2023-09-07T14:30:51;31.70;1.00
7014;DHT22;3547;50.774;12.918;2023-09-07T14:33:20;32.10;1.00
7014;DHT22;3547;50.774;12.918;2023-09-07T14:35:47;32.50;1.00
7014;DHT22;3547;50.774;12.918;2023-09-07T14:38:13;32.70;1.00
7014;DHT22;3547;50.774;12.918;2023-09-07T14:40:39;32.90;1.00
7014;DHT22;3547;50.774;12.918;2023-09-07T14:43:05;33.30;99.90
7014;DHT22;3547;50.774;12.918;2023-09-07T14:45:31;33.70;1.00
7014;DHT22;3547;50.774;12.918;2023-09-07T14:47:58;34.20;1.00
7014;DHT22;3547;50.774;12.918;2023-09-07T14:50:24;34.70;1.00
7014;DHT22;3547;50.774;12.918;2023-09-07T14:52:50;35.20;1.00
7014;DHT22;3547;50.774;12.918;2023-09-07T14:55:17;35.40;1.00
7014;DHT22;3547;50.774;12.918;2023-09-07T14:57:43;35.90;1.00
7014;DHT22;3547;50.774;12.918;2023-09-07T15:00:13;36.80;1.00
7014;DHT22;3547;50.774;12.918;2023-09-07T15:02:39;37.30;1.00
7014;DHT22;3547;50.774;12.918;2023-09-07T15:05:05;37.60;1.00
7014;DHT22;3547;50.774;12.918;2023-09-07T15:07:33;37.90;99.90
7014;DHT22;3547;50.774;12.918;2023-09-07T15:10:00;38.10;99.90
7014;DHT22;3547;50.774;12.918;2023-09-07T15:12:26;38.20;99.90
7014;DHT22;3547;50.774;12.918;2023-09-07T15:14:52;38.60;99.90
7014;DHT22;3547;50.774;12.918;2023-09-07T15:17:18;38.90;99.90
7014;DHT22;3547;50.774;12.918;2023-09-07T15:19:47;39.10;99.90
7014;DHT22;3547;50.774;12.918;2023-09-07T15:22:14;39.20;99.90
7014;DHT22;3547;50.774;12.918;2023-09-07T15:24:40;39.70;99.90
7014;DHT22;3547;50.774;12.918;2023-09-07T15:27:11;40.20;99.90
7014;DHT22;3547;50.774;12.918;2023-09-07T15:29:38;40.50;99.90
7014;DHT22;3547;50.774;12.918;2023-09-07T15:32:05;40.80;99.90
7014;DHT22;3547;50.774;12.918;2023-09-07T15:34:34;41.20;99.90
7014;DHT22;3547;50.774;12.918;2023-09-07T15:37:03;41.40;99.90
7014;DHT22;3547;50.774;12.918;2023-09-07T15:39:29;41.70;99.90
7014;DHT22;3547;50.774;12.918;2023-09-07T15:41:55;41.70;99.90
7014;DHT22;3547;50.774;12.918;2023-09-07T15:44:21;41.90;99.90
7014;DHT22;3547;50.774;12.918;2023-09-07T15:46:50;41.90;99.90
7014;DHT22;3547;50.774;12.918;2023-09-07T15:49:17;41.70;99.90
7014;DHT22;3547;50.774;12.918;2023-09-07T15:51:45;41.40;99.90
7014;DHT22;3547;50.774;12.918;2023-09-07T15:54:11;41.40;99.90
7014;DHT22;3547;50.774;12.918;2023-09-07T15:56:37;41.90;99.90
7014;DHT22;3547;50.774;12.918;2023-09-07T15:59:04;42.00;99.90
7014;DHT22;3547;50.774;12.918;2023-09-07T16:01:30;42.30;99.90
7014;DHT22;3547;50.774;12.918;2023-09-07T16:03:57;42.50;99.90
7014;DHT22;3547;50.774;12.918;2023-09-07T16:06:23;42.80;99.90
7014;DHT22;3547;50.774;12.918;2023-09-07T16:08:49;42.70;99.90
7014;DHT22;3547;50.774;12.918;2023-09-07T16:11:15;42.80;99.90
7014;DHT22;3547;50.774;12.918;2023-09-07T16:13:41;43.00;99.90
7014;DHT22;3547;50.774;12.918;2023-09-07T16:16:07;42.90;99.90
7014;DHT22;3547;50.774;12.918;2023-09-07T16:18:34;42.70;99.90
7014;DHT22;3547;50.774;12.918;2023-09-07T16:21:00;42.70;99.90
7014;DHT22;3547;50.774;12.918;2023-09-07T16:23:28;42.80;99.90
7014;DHT22;3547;50.774;12.918;2023-09-07T16:25:54;42.50;99.90
7014;DHT22;3547;50.774;12.918;2023-09-07T16:28:20;42.70;99.90
7014;DHT22;3547;50.774;12.918;2023-09-07T16:30:47;42.50;99.90
7014;DHT22;3547;50.774;12.918;2023-09-07T16:33:13;42.30;99.90
7014;DHT22;3547;50.774;12.918;2023-09-07T16:35:42;42.00;99.90
7014;DHT22;3547;50.774;12.918;2023-09-07T16:38:08;41.90;99.90
7014;DHT22;3547;50.774;12.918;2023-09-07T16:40:38;41.60;99.90
7014;DHT22;3547;50.774;12.918;2023-09-07T16:43:04;40.70;99.90
7014;DHT22;3547;50.774;12.918;2023-09-07T16:45:33;39.00;99.90
7014;DHT22;3547;50.774;12.918;2023-09-07T16:51:22;35.30;99.90
7014;DHT22;3547;50.774;12.918;2023-09-07T16:53:48;33.90;99.90
7014;DHT22;3547;50.774;12.918;2023-09-07T16:56:14;32.90;99.90
7014;DHT22;3547;50.774;12.918;2023-09-07T16:58:43;32.20;99.90
7014;DHT22;3547;50.774;12.918;2023-09-07T17:01:09;31.60;99.90
7014;DHT22;3547;50.774;12.918;2023-09-07T17:03:35;30.90;99.90
7014;DHT22;3547;50.774;12.918;2023-09-07T17:06:05;30.40;99.90
7014;DHT22;3547;50.774;12.918;2023-09-07T17:08:31;30.00;99.90
7014;DHT22;3547;50.774;12.918;2023-09-07T17:11:00;29.40;99.90
7014;DHT22;3547;50.774;12.918;2023-09-07T17:13:29;29.00;99.90
7014;DHT22;3547;50.774;12.918;2023-09-07T17:15:55;28.50;99.90
7014;DHT22;3547;50.774;12.918;2023-09-07T17:18:21;28.20;99.90
7014;DHT22;3547;50.774;12.918;2023-09-07T17:20:47;27.80;99.90
7014;DHT22;3547;50.774;12.918;2023-09-07T17:23:14;27.30;99.90
7014;DHT22;3547;50.774;12.918;2023-09-07T17:25:43;27.00;99.90
7014;DHT22;3547;50.774;12.918;2023-09-07T17:28:09;26.80;99.90
7014;DHT22;3547;50.774;12.918;2023-09-07T17:30:36;26.40;99.90
7014;DHT22;3547;50.774;12.918;2023-09-07T17:33:08;26.10;99.90
7014;DHT22;3547;50.774;12.918;2023-09-07T17:35:35;25.90;99.90
7014;DHT22;3547;50.774;12.918;2023-09-07T17:38:02;25.60;99.90
7014;DHT22;3547;50.774;12.918;2023-09-07T17:40:32;25.30;99.90
7014;DHT22;3547;50.774;12.918;2023-09-07T17:42:58;25.30;99.90
7014;DHT22;3547;50.774;12.918;2023-09-07T17:45:24;25.30;99.90
7014;DHT22;3547;50.774;12.918;2023-09-07T17:47:51;25.00;99.90
7014;DHT22;3547;50.774;12.918;2023-09-07T17:50:20;24.80;99.90
7014;DHT22;3547;50.774;12.918;2023-09-07T17:52:49;24.60;99.90
7014;DHT22;3547;50.774;12.918;2023-09-07T17:55:18;24.50;99.90
7014;DHT22;3547;50.774;12.918;2023-09-07T17:57:44;24.30;99.90
7014;DHT22;3547;50.774;12.918;2023-09-07T18:00:11;24.10;99.90
7014;DHT22;3547;50.774;12.918;2023-09-07T18:02:41;23.80;99.90
7014;DHT22;3547;50.774;12.918;2023-09-07T18:05:07;23.60;99.90
7014;DHT22;3547;50.774;12.918;2023-09-07T18:07:33;23.40;99.90
7014;DHT22;3547;50.774;12.918;2023-09-07T18:10:00;23.20;99.90
7014;DHT22;3547;50.774;12.918;2023-09-07T18:12:26;22.80;99.90
7014;DHT22;3547;50.774;12.918;2023-09-07T18:14:52;22.70;99.90
7014;DHT22;3547;50.774;12.918;2023-09-07T18:17:21;22.50;99.90
7014;DHT22;3547;50.774;12.918;2023-09-07T18:19:51;22.40;99.90
7014;DHT22;3547;50.774;12.918;2023-09-07T18:22:17;22.20;99.90
7014;DHT22;3547;50.774;12.918;2023-09-07T18:24:46;22.10;99.90
7014;DHT22;3547;50.774;12.918;2023-09-07T18:27:12;22.00;99.90
7014;DHT22;3547;50.774;12.918;2023-09-07T18:29:39;21.90;99.90
7014;DHT22;3547;50.774;12.918;2023-09-07T18:32:05;21.80;99.90
7014;DHT22;3547;50.774;12.918;2023-09-07T18:34:32;21.70;99.90
7014;DHT22;3547;50.774;12.918;2023-09-07T18:36:59;21.60;99.90
7014;DHT22;3547;50.774;12.918;2023-09-07T18:39:25;21.40;99.90
7014;DHT22;3547;50.774;12.918;2023-09-07T18:41:51;21.30;99.90
7014;DHT22;3547;50.774;12.918;2023-09-07T18:44:18;21.20;99.90
7014;DHT22;3547;50.774;12.918;2023-09-07T18:46:44;21.10;99.90
7014;DHT22;3547;50.774;12.918;2023-09-07T18:49:10;20.90;99.90
7014;DHT22;3547;50.774;12.918;2023-09-07T18:51:39;20.80;99.90
7014;DHT22;3547;50.774;12.918;2023-09-07T18:54:05;20.70;99.90
7014;DHT22;3547;50.774;12.918;2023-09-07T18:56:31;20.60;99.90
7014;DHT22;3547;50.774;12.918;2023-09-07T18:58:58;20.50;99.90
7014;DHT22;3547;50.774;12.918;2023-09-07T19:01:24;20.40;99.90
7014;DHT22;3547;50.774;12.918;2023-09-07T19:03:52;20.20;99.90
7014;DHT22;3547;50.774;12.918;2023-09-07T19:06:18;20.10;99.90
7014;DHT22;3547;50.774;12.918;2023-09-07T19:08:45;20.10;99.90
7014;DHT22;3547;50.774;12.918;2023-09-07T19:11:13;19.80;99.90
7014;DHT22;3547;50.774;12.918;2023-09-07T19:13:40;19.60;99.90
7014;DHT22;3547;50.774;12.918;2023-09-07T19:16:10;19.30;99.90
7014;DHT22;3547;50.774;12.918;2023-09-07T19:18:37;19.10;99.90
7014;DHT22;3547;50.774;12.918;2023-09-07T19:21:03;19.00;99.90
7014;DHT22;3547;50.774;12.918;2023-09-07T19:23:30;18.80;99.90
7014;DHT22;3547;50.774;12.918;2023-09-07T19:25:56;19.00;99.90
7014;DHT22;3547;50.774;12.918;2023-09-07T19:31:45;19.10;99.90
7014;DHT22;3547;50.774;12.918;2023-09-07T19:34:11;19.00;99.90
7014;DHT22;3547;50.774;12.918;2023-09-07T19:36:38;18.90;99.90
7014;DHT22;3547;50.774;12.918;2023-09-07T19:42:27;18.60;99.90
7014;DHT22;3547;50.774;12.918;2023-09-07T19:44:53;18.50;99.90
7014;DHT22;3547;50.774;12.918;2023-09-07T19:47:20;18.50;99.90
7014;DHT22;3547;50.774;12.918;2023-09-07T19:49:46;18.40;99.90
7014;DHT22;3547;50.774;12.918;2023-09-07T19:52:14;18.20;99.90
7014;DHT22;3547;50.774;12.918;2023-09-07T19:54:44;18.20;99.90
7014;DHT22;3547;50.774;12.918;2023-09-07T19:57:12;18.10;99.90
7014;DHT22;3547;50.774;12.918;2023-09-07T19:59:39;18.00;99.90
7014;DHT22;3547;50.774;12.918;2023-09-07T20:02:05;17.80;99.90
7014;DHT22;3547;50.774;12.918;2023-09-07T20:04:32;17.80;99.90
7014;DHT22;3547;50.774;12.918;2023-09-07T20:06:59;17.80;99.90
7014;DHT22;3547;50.774;12.918;2023-09-07T20:09:25;17.70;99.90
7014;DHT22;3547;50.774;12.918;2023-09-07T20:11:52;17.60;99.90
7014;DHT22;3547;50.774;12.918;2023-09-07T20:14:18;17.30;99.90
7014;DHT22;3547;50.774;12.918;2023-09-07T20:16:46;17.20;99.90
7014;DHT22;3547;50.774;12.918;2023-09-07T20:19:13;17.10;99.90
7014;DHT22;3547;50.774;12.918;2023-09-07T20:21:39;16.90;99.90
7014;DHT22;3547;50.774;12.918;2023-09-07T20:24:05;16.80;99.90
7014;DHT22;3547;50.774;12.918;2023-09-07T20:26:32;16.80;99.90
7014;DHT22;3547;50.774;12.918;2023-09-07T20:28:58;16.80;99.90
7014;DHT22;3547;50.774;12.918;2023-09-07T20:31:24;16.60;1.00
7014;DHT22;3547;50.774;12.918;2023-09-07T20:33:50;16.60;1.00
7014;DHT22;3547;50.774;12.918;2023-09-07T20:36:17;16.40;1.00
7014;DHT22;3547;50.774;12.918;2023-09-07T20:38:44;16.40;1.00
7014;DHT22;3547;50.774;12.918;2023-09-07T20:41:11;16.20;1.00
7014;DHT22;3547;50.774;12.918;2023-09-07T20:43:42;16.20;1.00
7014;DHT22;3547;50.774;12.918;2023-09-07T20:46:08;16.10;1.00
7014;DHT22;3547;50.774;12.918;2023-09-07T20:51:57;16.00;1.00
7014;DHT22;3547;50.774;12.918;2023-09-07T20:54:24;15.90;1.00
7014;DHT22;3547;50.774;12.918;2023-09-07T20:56:50;15.80;1.00
7014;DHT22;3547;50.774;12.918;2023-09-07T20:59:16;15.80;1.00
7014;DHT22;3547;50.774;12.918;2023-09-07T21:01:42;15.80;1.00
7014;DHT22;3547;50.774;12.918;2023-09-07T21:04:08;15.90;1.00
7014;DHT22;3547;50.774;12.918;2023-09-07T21:06:34;15.90;1.00
7014;DHT22;3547;50.774;12.918;2023-09-07T21:09:01;15.90;1.00
7014;DHT22;3547;50.774;12.918;2023-09-07T21:11:27;15.90;1.00
7014;DHT22;3547;50.774;12.918;2023-09-07T21:13:53;15.80;1.00
7014;DHT22;3547;50.774;12.918;2023-09-07T21:16:19;15.80;1.00
7014;DHT22;3547;50.774;12.918;2023-09-07T21:18:45;15.80;1.00
7014;DHT22;3547;50.774;12.918;2023-09-07T21:21:11;15.70;1.00